Sines, Portugal

1:18 AM WET on January 29, 2015 (GMT +0000)
Sines - ZIL2 | Change Station
CLOSE
Current Station
Personal Weather Station
Location: Sines, SET�BAL
Elevation: 167 ft
Nearby Weather Stations

Elev 167 ft 37.96 °N, 8.85 °W | Updated 7 minutes ago

Mostly Cloudy
Mostly Cloudy
51.8 °F
Feels Like 51.8 °F
N
4.0
Wind Variable Wind from NNE
Gusts 8.0 mph

Today
High -- | Low -- °F
--% Chance of Precip.
Yesterday
High -- | Low -- °F
Precip. -- in
7:42 AM 5:54 PM
Waxing Gibbous, 69% visible
Pressure 30.30 in
Visibility 6.2 miles
Clouds Mostly Cloudy 1800 ft
Dew Point 49 °F
Humidity 90%
Rainfall 0.00 in
Snow Depth Not available.
UV 0 out of 12
Pollen Not available.
Air Quality Not available.
Flu Activity Not available.
METAR LPMT 290100Z 35008KT 310V020 9999 BKN018 12/10 Q1026

More Conditions Fewer Conditions

Pressure 30.30 in
Visibility 6.2 miles
Clouds Mostly Cloudy 1800 ft
Dew Point 49 °F
Humidity 90%
Rainfall 0.00 in
Snow Depth Not available.
UV 0 out of 12
Pollen Not available.
Air Quality Not available.
Flu Activity Not available.
METAR LPMT 290100Z 35008KT 310V020 9999 BKN018 12/10 Q1026

More Conditions Fewer Conditions

10-Day Weather Forecast

Almanac

Astronomy

Jan. 29, 2015 Rise Set
Actual Time
Civil Twilight
Nautical Twilight
Astronomical Twilight
Moon
Length of Visible Light
Length of Day
Tomorrow will be .
, % of the Moon is Illuminated

Today's Extremes

Country Highs Country Lows

Community

WunderPhotos

Upload Photos

1,791,312 photos uploaded!

WunderBlogs® & News

Nearby

Air Quality

  Air Quality AQ Index Pollutant
Not available.

Snow Depth

Station Depth Elevation

Earthquake Activity

City Distance Mag. Time & Date
Minimum magnitude displayed is 2.5.

Coastal Water Temperatures

Place Temperature

Nearby Weather Stations